createdAt,value
2022-08-04T00:00:31.086Z,26.58
2022-08-04T00:03:14.379Z,25.83
2022-08-04T00:05:55.207Z,22.25
2022-08-04T00:08:34.859Z,22.92
2022-08-04T00:11:03.829Z,27.92
2022-08-04T00:13:38.359Z,22.83
2022-08-04T00:16:34.842Z,30.38
2022-08-04T00:19:11.382Z,22.38
2022-08-04T00:21:42.789Z,24.70
2022-08-04T00:24:13.356Z,33.28
2022-08-04T00:26:42.300Z,27.90
2022-08-04T00:29:10.532Z,29.52
2022-08-04T00:31:57.201Z,28.75
2022-08-04T00:34:27.871Z,22.90
2022-08-04T00:36:57.646Z,28.08
2022-08-04T00:39:26.824Z,26.52
2022-08-04T00:42:24.565Z,23.90
2022-08-04T00:45:04.267Z,22.80
2022-08-04T00:47:52.831Z,23.77
2022-08-04T00:50:28.638Z,26.15
2022-08-04T00:53:07.511Z,24.65
2022-08-04T00:56:06.573Z,23.80
2022-08-04T00:58:48.302Z,23.05
2022-08-04T01:01:30.449Z,25.10
2022-08-04T01:04:09.327Z,23.92
2022-08-04T01:06:50.888Z,22.52
2022-08-04T01:09:34.809Z,22.67
2022-08-04T01:12:31.510Z,22.73
2022-08-04T01:15:06.530Z,25.83
2022-08-04T01:17:59.650Z,23.75
2022-08-04T01:20:34.998Z,22.20
2022-08-04T01:23:50.872Z,22.77
2022-08-04T01:26:57.776Z,19.83
2022-08-04T01:29:47.035Z,20.75
2022-08-04T01:32:25.547Z,22.80
2022-08-04T01:34:59.942Z,21.27
2022-08-04T01:37:43.535Z,24.60
2022-08-04T01:40:15.758Z,20.42
2022-08-04T01:42:45.711Z,21.83
2022-08-04T01:45:16.739Z,20.80
2022-08-04T01:47:50.856Z,23.48
2022-08-04T01:50:19.060Z,23.73
2022-08-04T01:52:50.912Z,25.60
2022-08-04T01:55:20.124Z,21.98
2022-08-04T01:57:51.191Z,21.33
2022-08-04T02:00:23.673Z,21.98
2022-08-04T02:02:52.425Z,23.05
2022-08-04T02:05:22.223Z,18.67
2022-08-04T02:08:05.514Z,24.63
2022-08-04T02:10:54.430Z,21.58
2022-08-04T02:13:28.191Z,24.75
2022-08-04T02:16:03.891Z,24.70
2022-08-04T02:18:40.570Z,23.38
2022-08-04T02:21:09.349Z,20.20
2022-08-04T02:23:39.363Z,24.15
2022-08-04T02:26:19.297Z,27.50
2022-08-04T02:29:00.276Z,23.65
2022-08-04T02:31:34.332Z,24.55
2022-08-04T02:34:09.572Z,22.38
2022-08-04T02:36:39.851Z,21.67
2022-08-04T02:39:09.211Z,22.48
2022-08-04T02:41:38.509Z,23.15
2022-08-04T02:44:08.978Z,26.58
2022-08-04T02:46:41.463Z,26.48
2022-08-04T02:49:11.474Z,27.02
2022-08-04T02:51:43.423Z,26.02
2022-08-04T02:54:11.658Z,25.25
2022-08-04T02:56:41.945Z,25.92
2022-08-04T02:59:13.517Z,25.60
2022-08-04T03:01:58.049Z,22.75
2022-08-04T03:04:50.584Z,28.98
2022-08-04T03:07:45.471Z,23.70
2022-08-04T03:11:01.623Z,27.70
2022-08-04T03:13:42.848Z,27.92
2022-08-04T03:16:38.710Z,31.13
2022-08-04T03:19:58.182Z,32.38
2022-08-04T03:23:13.463Z,28.63
2022-08-04T03:26:11.031Z,27.38
2022-08-04T03:29:36.773Z,31.27
2022-08-04T03:32:39.415Z,30.88
2022-08-04T03:35:27.690Z,29.00
2022-08-04T03:38:13.394Z,27.92
2022-08-04T03:41:03.858Z,32.03
2022-08-04T03:44:02.891Z,28.23
2022-08-04T03:46:54.812Z,32.78
2022-08-04T03:49:50.241Z,28.92
2022-08-04T03:53:02.532Z,27.95
2022-08-04T03:55:51.669Z,27.60
2022-08-04T03:58:44.452Z,26.58
2022-08-04T04:01:29.421Z,28.70
2022-08-04T04:04:53.228Z,28.98
2022-08-04T04:07:58.236Z,31.20
2022-08-04T04:10:47.967Z,26.13
2022-08-04T04:13:31.738Z,28.98
2022-08-04T04:16:35.535Z,28.85
2022-08-04T04:19:24.036Z,26.65
2022-08-04T04:22:18.872Z,26.70
2022-08-04T04:25:15.561Z,34.33
2022-08-04T04:28:44.927Z,28.67
2022-08-04T04:31:04.761Z,27.60
2022-08-04T04:33:56.899Z,29.05
2022-08-04T04:36:36.993Z,26.02
2022-08-04T04:39:14.771Z,35.63
2022-08-04T04:42:15.079Z,28.30
2022-08-04T04:45:12.558Z,26.65
2022-08-04T04:48:08.757Z,26.95
2022-08-04T04:50:52.771Z,28.00
2022-08-04T04:53:29.366Z,25.67
2022-08-04T04:56:04.587Z,25.55
2022-08-04T04:58:36.199Z,21.60
2022-08-04T05:01:35.641Z,23.70
2022-08-04T05:04:37.065Z,24.20
2022-08-04T05:07:24.123Z,27.75
2022-08-04T05:10:08.126Z,28.13
2022-08-04T05:14:38.144Z,27.52
2022-08-04T05:15:57.423Z,25.67
2022-08-04T05:18:32.008Z,24.58
2022-08-04T05:21:09.236Z,24.25
2022-08-04T05:23:41.797Z,22.55
2022-08-04T05:26:14.518Z,22.48
2022-08-04T05:28:46.097Z,24.60
2022-08-04T05:31:24.392Z,21.75
2022-08-04T05:33:58.035Z,18.05
2022-08-04T05:36:40.837Z,18.73
2022-08-04T05:39:13.906Z,19.98
2022-08-04T05:41:45.901Z,21.08
2022-08-04T05:44:17.944Z,16.83
2022-08-04T05:46:53.670Z,18.80
2022-08-04T05:49:25.919Z,18.67
2022-08-04T05:51:56.841Z,16.30
2022-08-04T05:54:26.509Z,16.75
2022-08-04T05:56:56.425Z,18.50
2022-08-04T05:59:26.626Z,16.05
2022-08-04T06:01:59.034Z,18.88
2022-08-04T06:04:34.206Z,17.75
2022-08-04T06:07:02.669Z,17.58
2022-08-04T06:09:32.044Z,17.20
2022-08-04T06:12:04.143Z,17.30
2022-08-04T06:14:38.128Z,17.23
2022-08-04T06:17:18.427Z,12.32
2022-08-04T06:20:19.037Z,15.25
2022-08-04T06:22:51.724Z,15.07
2022-08-04T06:25:22.702Z,18.52
2022-08-04T06:27:52.208Z,13.88
2022-08-04T06:30:22.013Z,19.52
2022-08-04T06:33:03.603Z,15.40
2022-08-04T06:35:34.924Z,15.10
2022-08-04T06:38:04.400Z,15.73
2022-08-04T06:40:34.699Z,12.40
2022-08-04T06:43:04.518Z,13.60
2022-08-04T06:45:35.468Z,13.65
2022-08-04T06:48:05.306Z,13.35
2022-08-04T06:51:24.918Z,16.10
2022-08-04T06:53:25.805Z,13.75
2022-08-04T06:55:55.002Z,14.07
2022-08-04T06:58:24.555Z,14.18
2022-08-04T07:00:53.939Z,13.55
2022-08-04T07:03:23.020Z,12.45
2022-08-04T07:05:53.696Z,11.60
2022-08-04T07:08:22.926Z,10.57
2022-08-04T07:10:53.329Z,10.90
2022-08-04T07:13:23.409Z,16.75
2022-08-04T07:15:52.333Z,10.10
2022-08-04T07:18:20.597Z,13.60
2022-08-04T07:20:49.349Z,11.77
2022-08-04T07:23:24.096Z,10.18
2022-08-04T07:26:01.125Z,11.65
2022-08-04T07:28:41.379Z,9.75
2022-08-04T07:31:31.801Z,9.65
2022-08-04T07:34:16.641Z,11.63
2022-08-04T07:36:50.118Z,8.93
2022-08-04T07:39:28.489Z,16.92
2022-08-04T07:41:58.271Z,14.70
2022-08-04T07:44:27.032Z,11.57
2022-08-04T07:46:55.492Z,17.88
2022-08-04T07:49:55.081Z,7.93
2022-08-04T07:52:12.973Z,12.05
2022-08-04T07:54:43.007Z,8.25
2022-08-04T07:57:39.687Z,7.85
2022-08-04T07:59:59.539Z,10.13
2022-08-04T08:02:28.393Z,7.07
2022-08-04T08:04:57.183Z,9.05
2022-08-04T08:07:25.427Z,7.97
2022-08-04T08:09:55.053Z,6.80
2022-08-04T08:12:38.106Z,6.80
2022-08-04T08:15:15.822Z,7.22
2022-08-04T08:17:58.241Z,5.63
2022-08-04T08:20:29.555Z,7.82
2022-08-04T08:22:58.956Z,6.75
2022-08-04T08:25:28.841Z,6.40
2022-08-04T08:27:57.042Z,7.75
2022-08-04T08:30:31.686Z,7.80
2022-08-04T08:33:05.585Z,5.57
2022-08-04T08:35:47.405Z,7.50
2022-08-04T08:38:35.137Z,6.13
2022-08-04T08:41:25.048Z,7.32
2022-08-04T08:44:19.072Z,8.45
2022-08-04T08:47:21.071Z,7.22
2022-08-04T08:50:04.626Z,5.82
2022-08-04T08:53:00.627Z,7.93
2022-08-04T08:55:43.821Z,9.40
2022-08-04T08:58:49.842Z,15.65
2022-08-04T09:01:42.014Z,7.30
2022-08-04T09:04:35.406Z,7.50
2022-08-04T09:07:15.761Z,9.20
2022-08-04T09:09:52.774Z,9.93
2022-08-04T09:12:29.195Z,4.55
2022-08-04T09:15:07.459Z,6.68
2022-08-04T09:17:43.081Z,6.05
2022-08-04T09:20:18.333Z,6.35
2022-08-04T09:22:51.791Z,8.25
2022-08-04T09:25:25.282Z,10.05
2022-08-04T09:27:55.983Z,4.68
2022-08-04T09:30:33.923Z,9.90
2022-08-04T09:33:16.367Z,8.10
2022-08-04T09:35:54.348Z,6.47
2022-08-04T09:38:36.142Z,4.90
2022-08-04T09:41:33.921Z,8.18
2022-08-04T09:44:52.681Z,8.85
2022-08-04T09:47:12.585Z,8.85
2022-08-04T09:49:48.904Z,6.93
2022-08-04T09:52:28.025Z,6.53
2022-08-04T09:55:06.033Z,4.20
2022-08-04T09:57:49.108Z,6.43
2022-08-04T10:00:20.518Z,7.38
2022-08-04T10:03:17.434Z,5.05
2022-08-04T10:06:00.705Z,9.45
2022-08-04T10:08:52.987Z,5.22
2022-08-04T10:11:34.361Z,4.80
2022-08-04T10:14:39.985Z,3.88
2022-08-04T10:17:23.287Z,5.53
2022-08-04T10:20:01.644Z,6.88
2022-08-04T10:22:49.974Z,8.52
2022-08-04T10:26:02.917Z,7.45
2022-08-04T10:28:24.584Z,8.55
2022-08-04T10:30:59.113Z,6.95
2022-08-04T10:33:32.387Z,6.07
2022-08-04T10:36:05.769Z,6.80
2022-08-04T10:38:40.791Z,5.47
2022-08-04T10:41:17.493Z,4.68
2022-08-04T10:43:52.095Z,8.73
2022-08-04T10:46:24.355Z,11.80
2022-08-04T10:48:58.973Z,8.02
2022-08-04T10:51:58.672Z,12.82
2022-08-04T10:54:32.311Z,7.53
2022-08-04T10:57:05.885Z,9.82
2022-08-04T10:59:40.609Z,5.32
2022-08-04T11:02:28.245Z,5.30
2022-08-04T11:05:05.121Z,8.02
2022-08-04T11:07:38.189Z,8.60
2022-08-04T11:10:08.191Z,10.63
2022-08-04T11:12:39.244Z,6.43
2022-08-04T11:15:13.377Z,5.45
2022-08-04T11:17:45.216Z,7.50
2022-08-04T11:20:35.160Z,7.57
2022-08-04T11:23:10.186Z,6.03
2022-08-04T11:25:51.970Z,5.65
2022-08-04T11:28:32.321Z,4.78
2022-08-04T11:31:06.228Z,5.35
2022-08-04T11:33:42.456Z,5.38
2022-08-04T11:36:21.589Z,5.40
2022-08-04T11:38:59.323Z,9.27
2022-08-04T11:41:41.948Z,5.28
2022-08-04T11:44:17.746Z,4.45
2022-08-04T11:46:51.771Z,3.97
2022-08-04T11:49:30.476Z,5.15
2022-08-04T11:52:01.578Z,6.30
2022-08-04T11:54:33.080Z,8.73
2022-08-04T11:57:02.950Z,6.68
2022-08-04T11:59:35.417Z,5.75
2022-08-04T12:02:23.576Z,4.88
2022-08-04T12:04:57.922Z,3.85
2022-08-04T12:07:41.781Z,4.40
2022-08-04T12:10:41.484Z,7.57
2022-08-04T12:13:18.808Z,5.35
2022-08-04T12:15:56.175Z,4.90
2022-08-04T12:18:29.031Z,5.15
2022-08-04T12:21:02.004Z,5.93
2022-08-04T12:23:34.683Z,9.20
2022-08-04T12:26:07.440Z,4.22
2022-08-04T12:29:07.224Z,4.90
2022-08-04T12:31:29.623Z,5.72
2022-08-04T12:34:06.473Z,5.03
2022-08-04T12:36:44.354Z,5.00
2022-08-04T12:39:18.458Z,6.20
2022-08-04T12:41:58.360Z,6.80
2022-08-04T12:44:33.274Z,6.50
2022-08-04T12:47:25.661Z,8.50
2022-08-04T12:50:02.070Z,5.88
2022-08-04T12:52:59.142Z,6.05
2022-08-04T12:55:26.256Z,4.10
2022-08-04T12:57:56.645Z,6.43
2022-08-04T13:00:30.538Z,4.82
2022-08-04T13:03:10.028Z,9.93
2022-08-04T13:05:40.922Z,6.75
2022-08-04T13:08:11.380Z,7.05
2022-08-04T13:10:41.378Z,4.80
2022-08-04T13:13:18.217Z,5.38
2022-08-04T13:15:57.633Z,11.52
2022-08-04T13:18:30.322Z,6.13
2022-08-04T13:21:20.894Z,4.43
2022-08-04T13:24:10.382Z,9.25
2022-08-04T13:26:55.969Z,5.03
2022-08-04T13:29:59.201Z,6.95
2022-08-04T13:32:29.744Z,11.52
2022-08-04T13:35:01.198Z,9.27
2022-08-04T13:37:34.987Z,16.05
2022-08-04T13:40:05.653Z,4.43
2022-08-04T13:42:36.137Z,5.60
2022-08-04T13:45:08.248Z,5.47
2022-08-04T13:47:40.338Z,7.32
2022-08-04T13:50:18.096Z,5.32
2022-08-04T13:52:48.127Z,9.75
2022-08-04T13:55:25.283Z,6.28
2022-08-04T13:57:58.409Z,9.00
2022-08-04T14:00:43.643Z,5.03
2022-08-04T14:03:23.956Z,4.65
2022-08-04T14:06:14.045Z,5.10
2022-08-04T14:08:51.152Z,7.07
2022-08-04T14:12:10.892Z,4.28
2022-08-04T14:14:18.424Z,10.25
2022-08-04T14:17:04.396Z,6.53
2022-08-04T14:19:51.490Z,6.00
2022-08-04T14:22:30.503Z,6.35
2022-08-04T14:24:59.592Z,9.50
2022-08-04T14:27:30.460Z,10.43
2022-08-04T14:29:58.779Z,7.43
2022-08-04T14:32:28.606Z,6.43
2022-08-04T14:34:57.772Z,10.50
2022-08-04T14:37:26.067Z,4.95
2022-08-04T14:40:17.562Z,5.10
2022-08-04T14:42:44.548Z,4.78
2022-08-04T14:45:32.134Z,4.45
2022-08-04T14:48:03.200Z,10.32
2022-08-04T14:50:39.005Z,6.88
2022-08-04T14:53:09.664Z,5.30
2022-08-04T14:55:38.715Z,5.63
2022-08-04T14:58:35.314Z,4.55
2022-08-04T15:00:58.477Z,4.35
2022-08-04T15:03:30.762Z,5.38
2022-08-04T15:06:06.647Z,6.68
2022-08-04T15:08:38.024Z,6.40
2022-08-04T15:11:06.277Z,6.03
2022-08-04T15:13:35.418Z,4.20
2022-08-04T15:16:07.968Z,5.32
2022-08-04T15:18:41.873Z,5.05
2022-08-04T15:21:11.966Z,6.22
2022-08-04T15:23:40.361Z,5.47
2022-08-04T15:26:12.770Z,5.05
2022-08-04T15:28:46.056Z,5.47
2022-08-04T15:32:05.669Z,9.70
2022-08-04T15:34:06.266Z,5.93
2022-08-04T15:36:39.858Z,7.20
2022-08-04T15:39:17.865Z,7.10
2022-08-04T15:41:55.636Z,4.82
2022-08-04T15:45:09.607Z,4.35
2022-08-04T15:47:37.858Z,6.38
2022-08-04T15:50:09.968Z,6.05
2022-08-04T15:53:12.687Z,6.13
2022-08-04T15:55:43.203Z,5.97
2022-08-04T15:58:14.013Z,7.20
2022-08-04T16:01:15.543Z,4.22
2022-08-04T16:03:53.062Z,4.72
2022-08-04T16:06:45.835Z,5.57
2022-08-04T16:09:45.374Z,6.93
2022-08-04T16:12:59.471Z,4.18
2022-08-04T16:15:42.240Z,6.25
2022-08-04T16:18:25.696Z,5.72
2022-08-04T16:20:56.709Z,6.45
2022-08-04T16:24:02.067Z,7.07
2022-08-04T16:26:54.939Z,7.57
2022-08-04T16:29:40.397Z,6.05
2022-08-04T16:32:30.747Z,7.72
2022-08-04T16:35:04.229Z,8.07
2022-08-04T16:37:34.978Z,5.70
2022-08-04T16:40:38.869Z,6.55
2022-08-04T16:43:10.178Z,7.47
2022-08-04T16:45:45.153Z,5.72
2022-08-04T16:48:14.033Z,4.63
2022-08-04T16:50:54.329Z,5.90
2022-08-04T16:53:53.106Z,6.15
2022-08-04T16:56:15.155Z,4.47
2022-08-04T16:58:53.124Z,6.38
2022-08-04T17:01:33.590Z,6.75
2022-08-04T17:04:06.699Z,5.32
2022-08-04T17:06:40.281Z,8.15
2022-08-04T17:09:14.026Z,9.70
2022-08-04T17:11:42.991Z,6.50
2022-08-04T17:14:11.790Z,7.70
2022-08-04T17:16:43.531Z,5.40
2022-08-04T17:19:23.633Z,5.63
2022-08-04T17:22:00.647Z,6.00
2022-08-04T17:24:32.309Z,4.78
2022-08-04T17:27:00.614Z,6.22
2022-08-04T17:29:43.267Z,8.27
2022-08-04T17:32:17.331Z,4.55
2022-08-04T17:34:49.329Z,7.05
2022-08-04T17:40:12.237Z,11.07
2022-08-04T17:42:42.016Z,4.55
2022-08-04T17:48:02.955Z,7.80
2022-08-04T17:50:35.913Z,7.78
2022-08-04T17:53:12.621Z,6.47
2022-08-04T17:55:47.084Z,6.40
2022-08-04T17:58:21.465Z,6.28
2022-08-04T18:01:24.813Z,5.28
2022-08-04T18:03:52.800Z,8.18
2022-08-04T18:06:25.418Z,8.00
2022-08-04T18:08:58.105Z,8.23
2022-08-04T18:11:29.579Z,8.38
2022-08-04T18:14:10.704Z,8.15
2022-08-04T18:16:44.986Z,7.68
2022-08-04T18:19:18.978Z,6.07
2022-08-04T18:22:00.005Z,9.57
2022-08-04T18:24:35.658Z,7.90
2022-08-04T18:27:21.007Z,6.13
2022-08-04T18:30:14.848Z,6.22
2022-08-04T18:32:51.315Z,9.13
2022-08-04T18:36:31.383Z,5.07
2022-08-04T18:41:09.220Z,5.38
2022-08-04T18:43:40.742Z,5.55
2022-08-04T18:46:14.591Z,8.00
2022-08-04T18:48:45.298Z,5.05
2022-08-04T18:51:24.288Z,7.53
2022-08-04T18:53:55.333Z,5.88
2022-08-04T18:56:29.667Z,5.72
2022-08-04T18:59:00.738Z,8.02
2022-08-04T19:01:29.984Z,5.40
2022-08-04T19:04:33.212Z,6.63
2022-08-04T19:07:24.599Z,9.48
2022-08-04T19:09:58.062Z,4.93
2022-08-04T19:12:29.470Z,4.60
2022-08-04T19:15:10.264Z,8.02
2022-08-04T19:17:54.029Z,6.00
2022-08-04T19:20:29.846Z,9.93
2022-08-04T19:24:11.302Z,4.95
2022-08-04T19:26:01.681Z,11.50
2022-08-04T19:28:35.472Z,5.88
2022-08-04T19:31:06.217Z,7.20
2022-08-04T19:33:58.897Z,5.57
2022-08-04T19:36:27.858Z,6.97
2022-08-04T19:38:58.851Z,7.00
2022-08-04T19:41:27.742Z,7.35
2022-08-04T19:43:56.100Z,9.05
2022-08-04T19:46:25.651Z,7.78
2022-08-04T19:49:00.164Z,6.32
2022-08-04T19:51:29.989Z,7.10
2022-08-04T19:54:02.895Z,12.38
2022-08-04T19:56:40.242Z,5.97
2022-08-04T19:59:10.050Z,10.23
2022-08-04T20:01:44.757Z,8.48
2022-08-04T20:04:13.869Z,7.78
2022-08-04T20:06:42.551Z,9.27
2022-08-04T20:09:26.063Z,9.75
2022-08-04T20:11:55.772Z,7.70
2022-08-04T20:14:32.854Z,6.72
2022-08-04T20:17:03.325Z,9.45
2022-08-04T20:19:38.836Z,9.30
2022-08-04T20:22:50.598Z,7.50
2022-08-04T20:25:17.989Z,12.95
2022-08-04T20:27:59.512Z,7.35
2022-08-04T20:30:30.079Z,6.28
2022-08-04T20:33:00.122Z,8.30
2022-08-04T20:35:28.405Z,6.50
2022-08-04T20:38:00.402Z,8.60
2022-08-04T20:40:30.850Z,6.20
2022-08-04T20:42:59.549Z,5.57
2022-08-04T20:45:55.820Z,7.82
2022-08-04T20:48:16.605Z,9.30
2022-08-04T20:50:47.164Z,8.13
2022-08-04T20:53:16.424Z,8.85
2022-08-04T20:55:55.274Z,7.55
2022-08-04T20:58:27.711Z,7.22
2022-08-04T21:00:57.043Z,9.88
2022-08-04T21:03:49.227Z,10.82
2022-08-04T21:06:13.657Z,7.75
2022-08-04T21:08:44.113Z,8.52
2022-08-04T21:14:15.286Z,8.90
2022-08-04T21:16:53.833Z,13.68
2022-08-04T21:19:24.591Z,9.27
2022-08-04T21:21:55.516Z,10.23
2022-08-04T21:24:26.222Z,8.13
2022-08-04T21:26:57.631Z,14.07
2022-08-04T21:29:34.662Z,12.55
2022-08-04T21:32:05.714Z,10.70
2022-08-04T21:34:39.446Z,10.10
2022-08-04T21:37:10.452Z,8.20
2022-08-04T21:39:50.177Z,9.32
2022-08-04T21:42:30.626Z,12.95
2022-08-04T21:44:59.255Z,12.20
2022-08-04T21:47:46.073Z,15.05
2022-08-04T21:50:19.775Z,9.27
2022-08-04T21:52:49.306Z,11.55
2022-08-04T21:55:19.108Z,10.40
2022-08-04T21:57:49.416Z,10.18
2022-08-04T22:00:20.226Z,7.25
2022-08-04T22:02:53.454Z,9.95
2022-08-04T22:05:22.456Z,12.82
2022-08-04T22:10:38.859Z,11.25
2022-08-04T22:13:22.738Z,9.68
2022-08-04T22:18:39.417Z,14.13
2022-08-04T22:21:11.962Z,14.20
2022-08-04T22:23:45.465Z,11.73
2022-08-04T22:26:20.011Z,11.30
2022-08-04T22:28:57.939Z,13.05
2022-08-04T22:31:26.696Z,13.98
2022-08-04T22:34:14.821Z,11.95
2022-08-04T22:36:47.471Z,19.77
2022-08-04T22:39:16.383Z,12.15
2022-08-04T22:41:48.714Z,11.95
2022-08-04T22:44:33.643Z,12.18
2022-08-04T22:47:02.543Z,14.23
2022-08-04T22:49:32.596Z,11.95
2022-08-04T22:52:03.486Z,11.80
2022-08-04T22:54:38.234Z,10.90
2022-08-04T22:57:08.857Z,12.20
2022-08-04T22:59:43.074Z,12.95
2022-08-04T23:02:11.669Z,13.38
2022-08-04T23:04:43.038Z,11.00
2022-08-04T23:07:12.632Z,15.82
2022-08-04T23:09:49.997Z,16.27
2022-08-04T23:12:25.376Z,13.18
2022-08-04T23:14:56.270Z,12.68
2022-08-04T23:17:25.851Z,12.30
2022-08-04T23:19:59.190Z,14.90
2022-08-04T23:22:42.399Z,14.35
2022-08-04T23:25:15.510Z,13.93
2022-08-04T23:27:50.921Z,12.18
2022-08-04T23:30:24.950Z,10.20
2022-08-04T23:32:57.971Z,16.05
2022-08-04T23:35:26.375Z,14.38
2022-08-04T23:37:56.968Z,11.15
2022-08-04T23:40:32.908Z,12.20
2022-08-04T23:43:02.271Z,11.55
2022-08-04T23:46:04.169Z,12.15
2022-08-04T23:48:35.947Z,14.45
2022-08-04T23:51:13.852Z,13.38
2022-08-04T23:54:01.630Z,11.90
2022-08-04T23:56:32.337Z,11.73
2022-08-04T23:59:03.540Z,10.07
